sensor_id;sensor_type;location;lat;lon;timestamp;temperature;humidity
14687;DHT22;7431;49.440;11.084;2023-03-23T00:01:11;10.30;99.90
14687;DHT22;7431;49.440;11.084;2023-03-23T00:03:38;10.30;99.90
14687;DHT22;7431;49.440;11.084;2023-03-23T00:06:05;10.20;99.90
14687;DHT22;7431;49.440;11.084;2023-03-23T00:08:38;10.10;99.90
14687;DHT22;7431;49.440;11.084;2023-03-23T00:11:21;10.10;99.90
14687;DHT22;7431;49.440;11.084;2023-03-23T00:13:50;10.00;99.90
14687;DHT22;7431;49.440;11.084;2023-03-23T00:16:18;10.00;99.90
14687;DHT22;7431;49.440;11.084;2023-03-23T00:18:48;9.90;99.90
14687;DHT22;7431;49.440;11.084;2023-03-23T00:21:21;9.90;99.90
14687;DHT22;7431;49.440;11.084;2023-03-23T00:23:51;9.90;99.90
14687;DHT22;7431;49.440;11.084;2023-03-23T00:26:16;10.20;99.90
14687;DHT22;7431;49.440;11.084;2023-03-23T00:28:42;9.90;99.90
14687;DHT22;7431;49.440;11.084;2023-03-23T00:31:09;9.90;99.90
14687;DHT22;7431;49.440;11.084;2023-03-23T00:33:36;9.90;99.90
14687;DHT22;7431;49.440;11.084;2023-03-23T00:36:10;9.90;99.90
14687;DHT22;7431;49.440;11.084;2023-03-23T00:38:37;9.90;99.90
14687;DHT22;7431;49.440;11.084;2023-03-23T00:41:03;10.10;99.90
14687;DHT22;7431;49.440;11.084;2023-03-23T00:43:29;10.00;99.90
14687;DHT22;7431;49.440;11.084;2023-03-23T00:46:02;10.00;99.90
14687;DHT22;7431;49.440;11.084;2023-03-23T00:48:38;10.10;99.90
14687;DHT22;7431;49.440;11.084;2023-03-23T00:51:10;10.10;99.90
14687;DHT22;7431;49.440;11.084;2023-03-23T00:53:42;10.20;99.90
14687;DHT22;7431;49.440;11.084;2023-03-23T00:56:08;10.20;99.90
14687;DHT22;7431;49.440;11.084;2023-03-23T00:58:35;10.30;99.90
14687;DHT22;7431;49.440;11.084;2023-03-23T01:01:01;10.30;99.90
14687;DHT22;7431;49.440;11.084;2023-03-23T01:03:26;10.40;99.90
14687;DHT22;7431;49.440;11.084;2023-03-23T01:05:53;10.40;99.90
14687;DHT22;7431;49.440;11.084;2023-03-23T01:08:21;10.40;99.90
14687;DHT22;7431;49.440;11.084;2023-03-23T01:10:48;10.50;99.90
14687;DHT22;7431;49.440;11.084;2023-03-23T01:13:14;10.50;99.90
14687;DHT22;7431;49.440;11.084;2023-03-23T01:15:40;10.60;99.90
14687;DHT22;7431;49.440;11.084;2023-03-23T01:18:07;10.60;99.90
14687;DHT22;7431;49.440;11.084;2023-03-23T01:20:34;10.60;99.90
14687;DHT22;7431;49.440;11.084;2023-03-23T01:23:01;10.50;99.90
14687;DHT22;7431;49.440;11.084;2023-03-23T01:25:31;10.50;99.90
14687;DHT22;7431;49.440;11.084;2023-03-23T01:27:58;10.70;99.90
14687;DHT22;7431;49.440;11.084;2023-03-23T01:30:24;10.70;99.90
14687;DHT22;7431;49.440;11.084;2023-03-23T01:32:51;10.70;99.90
14687;DHT22;7431;49.440;11.084;2023-03-23T01:35:17;10.80;99.90
14687;DHT22;7431;49.440;11.084;2023-03-23T01:37:43;10.80;99.90
14687;DHT22;7431;49.440;11.084;2023-03-23T01:40:09;10.90;99.90
14687;DHT22;7431;49.440;11.084;2023-03-23T01:42:37;10.80;99.90
14687;DHT22;7431;49.440;11.084;2023-03-23T01:47:49;10.90;99.90
14687;DHT22;7431;49.440;11.084;2023-03-23T01:50:18;10.90;99.90
14687;DHT22;7431;49.440;11.084;2023-03-23T01:52:44;10.90;99.90
14687;DHT22;7431;49.440;11.084;2023-03-23T01:55:10;11.00;99.90
14687;DHT22;7431;49.440;11.084;2023-03-23T01:57:36;11.00;99.90
14687;DHT22;7431;49.440;11.084;2023-03-23T02:00:07;11.10;99.90
14687;DHT22;7431;49.440;11.084;2023-03-23T02:02:36;11.10;99.90
14687;DHT22;7431;49.440;11.084;2023-03-23T02:05:10;11.20;99.90
14687;DHT22;7431;49.440;11.084;2023-03-23T02:07:37;11.20;99.90
14687;DHT22;7431;49.440;11.084;2023-03-23T02:10:03;11.20;99.90
14687;DHT22;7431;49.440;11.084;2023-03-23T02:12:29;11.30;99.90
14687;DHT22;7431;49.440;11.084;2023-03-23T02:14:54;11.30;99.90
14687;DHT22;7431;49.440;11.084;2023-03-23T02:17:26;11.30;99.90
14687;DHT22;7431;49.440;11.084;2023-03-23T02:23:28;11.40;99.90
14687;DHT22;7431;49.440;11.084;2023-03-23T02:29:30;11.60;99.90
14687;DHT22;7431;49.440;11.084;2023-03-23T02:32:29;11.50;99.90
14687;DHT22;7431;49.440;11.084;2023-03-23T02:35:37;11.50;99.90
14687;DHT22;7431;49.440;11.084;2023-03-23T02:38:18;11.50;99.90
14687;DHT22;7431;49.440;11.084;2023-03-23T02:40:47;11.40;99.90
14687;DHT22;7431;49.440;11.084;2023-03-23T02:43:20;11.40;99.90
14687;DHT22;7431;49.440;11.084;2023-03-23T02:45:47;11.40;99.90
14687;DHT22;7431;49.440;11.084;2023-03-23T02:48:18;11.40;99.90
14687;DHT22;7431;49.440;11.084;2023-03-23T02:50:47;11.50;99.90
14687;DHT22;7431;49.440;11.084;2023-03-23T02:53:18;11.50;99.90
14687;DHT22;7431;49.440;11.084;2023-03-23T02:55:45;11.50;99.90
14687;DHT22;7431;49.440;11.084;2023-03-23T02:58:12;11.50;99.90
14687;DHT22;7431;49.440;11.084;2023-03-23T03:00:38;11.60;99.90
14687;DHT22;7431;49.440;11.084;2023-03-23T03:03:05;12.10;99.90
14687;DHT22;7431;49.440;11.084;2023-03-23T03:11:02;11.50;99.90
14687;DHT22;7431;49.440;11.084;2023-03-23T03:16:25;11.50;99.90
14687;DHT22;7431;49.440;11.084;2023-03-23T03:19:05;11.50;99.90
14687;DHT22;7431;49.440;11.084;2023-03-23T03:21:38;11.50;99.90
14687;DHT22;7431;49.440;11.084;2023-03-23T03:24:05;11.60;99.90
14687;DHT22;7431;49.440;11.084;2023-03-23T03:26:40;11.60;99.90
14687;DHT22;7431;49.440;11.084;2023-03-23T03:29:06;11.60;99.90
14687;DHT22;7431;49.440;11.084;2023-03-23T03:31:36;11.60;99.90
14687;DHT22;7431;49.440;11.084;2023-03-23T03:34:03;11.60;99.90
14687;DHT22;7431;49.440;11.084;2023-03-23T03:36:34;11.70;99.90
14687;DHT22;7431;49.440;11.084;2023-03-23T03:39:08;11.60;99.90
14687;DHT22;7431;49.440;11.084;2023-03-23T03:41:35;11.50;99.90
14687;DHT22;7431;49.440;11.084;2023-03-23T03:44:02;11.50;99.90
14687;DHT22;7431;49.440;11.084;2023-03-23T03:46:28;11.40;99.90
14687;DHT22;7431;49.440;11.084;2023-03-23T03:48:55;11.30;99.90
14687;DHT22;7431;49.440;11.084;2023-03-23T03:51:22;11.30;99.90
14687;DHT22;7431;49.440;11.084;2023-03-23T03:53:48;11.30;99.90
14687;DHT22;7431;49.440;11.084;2023-03-23T03:56:13;11.20;99.90
14687;DHT22;7431;49.440;11.084;2023-03-23T03:58:39;11.20;99.90
14687;DHT22;7431;49.440;11.084;2023-03-23T04:01:10;11.30;99.90
14687;DHT22;7431;49.440;11.084;2023-03-23T04:03:37;11.20;99.90
14687;DHT22;7431;49.440;11.084;2023-03-23T04:06:05;11.30;99.90
14687;DHT22;7431;49.440;11.084;2023-03-23T04:08:31;11.10;99.90
14687;DHT22;7431;49.440;11.084;2023-03-23T04:10:57;11.20;99.90
14687;DHT22;7431;49.440;11.084;2023-03-23T04:13:23;11.30;99.90
14687;DHT22;7431;49.440;11.084;2023-03-23T04:15:49;11.30;99.90
14687;DHT22;7431;49.440;11.084;2023-03-23T04:18:16;11.30;99.90
14687;DHT22;7431;49.440;11.084;2023-03-23T04:20:44;11.30;99.90
14687;DHT22;7431;49.440;11.084;2023-03-23T04:23:13;11.30;99.90
14687;DHT22;7431;49.440;11.084;2023-03-23T04:25:38;11.40;99.90
14687;DHT22;7431;49.440;11.084;2023-03-23T04:28:07;11.40;99.90
14687;DHT22;7431;49.440;11.084;2023-03-23T04:30:35;11.40;99.90
14687;DHT22;7431;49.440;11.084;2023-03-23T04:33:02;11.40;99.90
14687;DHT22;7431;49.440;11.084;2023-03-23T04:35:28;11.40;99.90
14687;DHT22;7431;49.440;11.084;2023-03-23T04:37:55;11.50;99.90
14687;DHT22;7431;49.440;11.084;2023-03-23T04:40:21;11.50;99.90
14687;DHT22;7431;49.440;11.084;2023-03-23T04:42:47;11.50;99.90
14687;DHT22;7431;49.440;11.084;2023-03-23T04:45:16;11.50;99.90
14687;DHT22;7431;49.440;11.084;2023-03-23T04:47:48;11.50;99.90
14687;DHT22;7431;49.440;11.084;2023-03-23T04:50:20;11.50;99.90
14687;DHT22;7431;49.440;11.084;2023-03-23T04:52:47;11.50;99.90
14687;DHT22;7431;49.440;11.084;2023-03-23T04:55:13;11.30;99.90
14687;DHT22;7431;49.440;11.084;2023-03-23T04:57:42;11.50;99.90
14687;DHT22;7431;49.440;11.084;2023-03-23T05:00:10;11.50;99.90
14687;DHT22;7431;49.440;11.084;2023-03-23T05:02:42;11.50;99.90
14687;DHT22;7431;49.440;11.084;2023-03-23T05:05:13;11.50;99.90
14687;DHT22;7431;49.440;11.084;2023-03-23T05:07:41;11.60;99.90
14687;DHT22;7431;49.440;11.084;2023-03-23T05:10:09;11.50;99.90
14687;DHT22;7431;49.440;11.084;2023-03-23T05:12:35;11.50;99.90
14687;DHT22;7431;49.440;11.084;2023-03-23T05:15:01;11.50;99.90
14687;DHT22;7431;49.440;11.084;2023-03-23T05:17:27;11.50;99.90
14687;DHT22;7431;49.440;11.084;2023-03-23T05:19:56;11.70;99.90
14687;DHT22;7431;49.440;11.084;2023-03-23T05:22:22;11.60;99.90
14687;DHT22;7431;49.440;11.084;2023-03-23T05:24:48;11.50;99.90
14687;DHT22;7431;49.440;11.084;2023-03-23T05:27:17;11.60;99.90
14687;DHT22;7431;49.440;11.084;2023-03-23T05:29:44;11.60;99.90
14687;DHT22;7431;49.440;11.084;2023-03-23T05:32:11;11.60;99.90
14687;DHT22;7431;49.440;11.084;2023-03-23T05:34:37;11.70;99.90
14687;DHT22;7431;49.440;11.084;2023-03-23T05:37:03;11.70;99.90
14687;DHT22;7431;49.440;11.084;2023-03-23T05:39:30;11.70;99.90
14687;DHT22;7431;49.440;11.084;2023-03-23T05:41:56;11.70;99.90
14687;DHT22;7431;49.440;11.084;2023-03-23T05:44:22;11.70;99.90
14687;DHT22;7431;49.440;11.084;2023-03-23T05:46:48;11.80;99.90
14687;DHT22;7431;49.440;11.084;2023-03-23T05:49:15;11.80;99.90
14687;DHT22;7431;49.440;11.084;2023-03-23T05:51:44;12.00;99.90
14687;DHT22;7431;49.440;11.084;2023-03-23T05:54:11;12.00;99.90
14687;DHT22;7431;49.440;11.084;2023-03-23T05:56:37;12.00;99.90
14687;DHT22;7431;49.440;11.084;2023-03-23T05:59:04;12.10;99.90
14687;DHT22;7431;49.440;11.084;2023-03-23T06:01:29;12.20;99.90
14687;DHT22;7431;49.440;11.084;2023-03-23T06:03:55;12.20;99.90
14687;DHT22;7431;49.440;11.084;2023-03-23T06:06:24;12.20;99.90
14687;DHT22;7431;49.440;11.084;2023-03-23T06:08:50;12.30;99.90
14687;DHT22;7431;49.440;11.084;2023-03-23T06:11:16;12.30;99.90
14687;DHT22;7431;49.440;11.084;2023-03-23T06:13:41;12.40;99.90
14687;DHT22;7431;49.440;11.084;2023-03-23T06:16:07;12.50;99.90
14687;DHT22;7431;49.440;11.084;2023-03-23T06:18:34;12.60;99.90
14687;DHT22;7431;49.440;11.084;2023-03-23T06:21:02;12.70;99.90
14687;DHT22;7431;49.440;11.084;2023-03-23T06:23:28;12.90;99.90
14687;DHT22;7431;49.440;11.084;2023-03-23T06:25:56;13.00;99.90
14687;DHT22;7431;49.440;11.084;2023-03-23T06:28:23;13.10;99.90
14687;DHT22;7431;49.440;11.084;2023-03-23T06:30:48;13.20;99.90
14687;DHT22;7431;49.440;11.084;2023-03-23T06:33:14;13.10;99.90
14687;DHT22;7431;49.440;11.084;2023-03-23T06:35:40;13.00;99.90
14687;DHT22;7431;49.440;11.084;2023-03-23T06:38:06;13.00;99.90
14687;DHT22;7431;49.440;11.084;2023-03-23T06:40:31;13.00;99.90
14687;DHT22;7431;49.440;11.084;2023-03-23T06:42:57;13.00;99.90
14687;DHT22;7431;49.440;11.084;2023-03-23T06:45:24;13.00;99.90
14687;DHT22;7431;49.440;11.084;2023-03-23T06:47:50;13.00;99.90
14687;DHT22;7431;49.440;11.084;2023-03-23T06:50:18;13.00;99.90
14687;DHT22;7431;49.440;11.084;2023-03-23T06:52:48;13.00;99.90
14687;DHT22;7431;49.440;11.084;2023-03-23T06:55:14;13.10;99.90
14687;DHT22;7431;49.440;11.084;2023-03-23T06:57:41;13.20;99.90
14687;DHT22;7431;49.440;11.084;2023-03-23T07:00:09;13.20;99.90
14687;DHT22;7431;49.440;11.084;2023-03-23T07:02:37;13.40;99.90
14687;DHT22;7431;49.440;11.084;2023-03-23T07:05:03;13.60;99.90
14687;DHT22;7431;49.440;11.084;2023-03-23T07:07:29;13.80;99.90
14687;DHT22;7431;49.440;11.084;2023-03-23T07:09:55;14.10;99.90
14687;DHT22;7431;49.440;11.084;2023-03-23T07:12:21;14.10;99.90
14687;DHT22;7431;49.440;11.084;2023-03-23T07:14:47;14.40;99.90
14687;DHT22;7431;49.440;11.084;2023-03-23T07:17:13;14.70;99.90
14687;DHT22;7431;49.440;11.084;2023-03-23T07:19:39;15.10;99.90
14687;DHT22;7431;49.440;11.084;2023-03-23T07:22:06;15.50;99.90
14687;DHT22;7431;49.440;11.084;2023-03-23T07:24:33;15.80;99.90
14687;DHT22;7431;49.440;11.084;2023-03-23T07:26:59;16.00;99.90
14687;DHT22;7431;49.440;11.084;2023-03-23T07:29:25;16.20;99.90
14687;DHT22;7431;49.440;11.084;2023-03-23T07:31:52;16.30;99.90
14687;DHT22;7431;49.440;11.084;2023-03-23T07:34:18;16.60;99.90
14687;DHT22;7431;49.440;11.084;2023-03-23T07:36:44;16.80;99.90
14687;DHT22;7431;49.440;11.084;2023-03-23T07:39:11;16.70;99.90
14687;DHT22;7431;49.440;11.084;2023-03-23T07:41:37;16.30;99.90
14687;DHT22;7431;49.440;11.084;2023-03-23T07:44:03;16.00;99.90
14687;DHT22;7431;49.440;11.084;2023-03-23T07:46:29;15.70;99.90
14687;DHT22;7431;49.440;11.084;2023-03-23T07:48:55;15.60;99.90
14687;DHT22;7431;49.440;11.084;2023-03-23T07:51:22;15.40;99.90
14687;DHT22;7431;49.440;11.084;2023-03-23T07:53:48;15.30;99.90
14687;DHT22;7431;49.440;11.084;2023-03-23T07:56:15;15.20;99.90
14687;DHT22;7431;49.440;11.084;2023-03-23T07:58:56;15.20;99.90
14687;DHT22;7431;49.440;11.084;2023-03-23T08:01:22;15.30;99.90
14687;DHT22;7431;49.440;11.084;2023-03-23T08:03:49;15.30;99.90
14687;DHT22;7431;49.440;11.084;2023-03-23T08:06:15;15.40;99.90
14687;DHT22;7431;49.440;11.084;2023-03-23T08:08:41;15.50;99.90
14687;DHT22;7431;49.440;11.084;2023-03-23T08:11:07;15.60;99.90
14687;DHT22;7431;49.440;11.084;2023-03-23T08:13:32;15.80;99.90
14687;DHT22;7431;49.440;11.084;2023-03-23T08:16:01;15.90;99.90
14687;DHT22;7431;49.440;11.084;2023-03-23T08:18:30;15.80;99.90
14687;DHT22;7431;49.440;11.084;2023-03-23T08:20:57;15.60;99.90
14687;DHT22;7431;49.440;11.084;2023-03-23T08:23:22;15.60;99.90
14687;DHT22;7431;49.440;11.084;2023-03-23T08:25:48;15.40;99.90
14687;DHT22;7431;49.440;11.084;2023-03-23T08:28:14;15.30;99.90
14687;DHT22;7431;49.440;11.084;2023-03-23T08:30:40;15.20;99.90
14687;DHT22;7431;49.440;11.084;2023-03-23T08:33:07;15.10;99.90
14687;DHT22;7431;49.440;11.084;2023-03-23T08:35:33;15.00;99.90
14687;DHT22;7431;49.440;11.084;2023-03-23T08:37:59;14.80;99.90
14687;DHT22;7431;49.440;11.084;2023-03-23T08:40:25;14.80;99.90
14687;DHT22;7431;49.440;11.084;2023-03-23T08:42:52;14.70;99.90
14687;DHT22;7431;49.440;11.084;2023-03-23T08:45:20;14.60;99.90
14687;DHT22;7431;49.440;11.084;2023-03-23T08:47:47;14.50;99.90
14687;DHT22;7431;49.440;11.084;2023-03-23T08:50:20;14.50;99.90
14687;DHT22;7431;49.440;11.084;2023-03-23T08:52:48;14.60;99.90
14687;DHT22;7431;49.440;11.084;2023-03-23T08:55:15;14.60;99.90
14687;DHT22;7431;49.440;11.084;2023-03-23T08:57:43;14.60;99.90
14687;DHT22;7431;49.440;11.084;2023-03-23T09:00:12;14.70;99.90
14687;DHT22;7431;49.440;11.084;2023-03-23T09:02:49;14.90;99.90
14687;DHT22;7431;49.440;11.084;2023-03-23T09:05:17;15.00;99.90
14687;DHT22;7431;49.440;11.084;2023-03-23T09:07:45;15.10;99.90
14687;DHT22;7431;49.440;11.084;2023-03-23T09:10:12;15.20;99.90
14687;DHT22;7431;49.440;11.084;2023-03-23T09:12:39;15.40;99.90
14687;DHT22;7431;49.440;11.084;2023-03-23T09:15:06;15.50;99.90
14687;DHT22;7431;49.440;11.084;2023-03-23T09:17:36;15.60;99.90
14687;DHT22;7431;49.440;11.084;2023-03-23T09:20:04;15.80;99.90
14687;DHT22;7431;49.440;11.084;2023-03-23T09:22:36;15.90;99.90
14687;DHT22;7431;49.440;11.084;2023-03-23T09:25:02;16.00;99.90
14687;DHT22;7431;49.440;11.084;2023-03-23T09:27:27;16.00;99.90
14687;DHT22;7431;49.440;11.084;2023-03-23T09:29:53;16.10;99.90
14687;DHT22;7431;49.440;11.084;2023-03-23T09:32:20;16.30;99.90
14687;DHT22;7431;49.440;11.084;2023-03-23T09:34:47;16.40;99.90
14687;DHT22;7431;49.440;11.084;2023-03-23T09:37:13;16.50;99.90
14687;DHT22;7431;49.440;11.084;2023-03-23T09:39:39;16.70;99.90
14687;DHT22;7431;49.440;11.084;2023-03-23T09:42:20;16.80;99.90
14687;DHT22;7431;49.440;11.084;2023-03-23T09:50:21;16.70;99.90
14687;DHT22;7431;49.440;11.084;2023-03-23T09:52:51;16.80;99.90
14687;DHT22;7431;49.440;11.084;2023-03-23T09:55:19;16.80;99.90
14687;DHT22;7431;49.440;11.084;2023-03-23T10:00:58;17.20;99.90
14687;DHT22;7431;49.440;11.084;2023-03-23T10:03:35;17.40;99.90
14687;DHT22;7431;49.440;11.084;2023-03-23T10:06:03;17.70;99.90
14687;DHT22;7431;49.440;11.084;2023-03-23T10:08:32;17.70;99.90
14687;DHT22;7431;49.440;11.084;2023-03-23T10:22:09;17.50;99.90
14687;DHT22;7431;49.440;11.084;2023-03-23T10:25:08;17.50;99.90
14687;DHT22;7431;49.440;11.084;2023-03-23T10:28:00;17.40;99.90
14687;DHT22;7431;49.440;11.084;2023-03-23T10:38:32;16.80;99.90
14687;DHT22;7431;49.440;11.084;2023-03-23T10:41:11;16.60;99.90
14687;DHT22;7431;49.440;11.084;2023-03-23T10:43:38;16.40;99.90
14687;DHT22;7431;49.440;11.084;2023-03-23T10:49:06;16.20;99.90
14687;DHT22;7431;49.440;11.084;2023-03-23T10:51:40;16.20;99.90
14687;DHT22;7431;49.440;11.084;2023-03-23T10:54:07;16.20;99.90
14687;DHT22;7431;49.440;11.084;2023-03-23T10:56:51;16.20;99.90
14687;DHT22;7431;49.440;11.084;2023-03-23T10:59:28;16.20;99.90
14687;DHT22;7431;49.440;11.084;2023-03-23T11:01:56;16.20;99.90
14687;DHT22;7431;49.440;11.084;2023-03-23T11:04:23;16.00;99.90
14687;DHT22;7431;49.440;11.084;2023-03-23T11:06:52;16.00;99.90
14687;DHT22;7431;49.440;11.084;2023-03-23T11:09:20;16.00;99.90
14687;DHT22;7431;49.440;11.084;2023-03-23T11:11:51;16.20;99.90
14687;DHT22;7431;49.440;11.084;2023-03-23T11:14:29;16.10;99.90
14687;DHT22;7431;49.440;11.084;2023-03-23T11:17:01;16.00;99.90
14687;DHT22;7431;49.440;11.084;2023-03-23T11:19:37;16.00;99.90
14687;DHT22;7431;49.440;11.084;2023-03-23T11:22:12;15.90;99.90
14687;DHT22;7431;49.440;11.084;2023-03-23T11:24:44;15.80;99.90
14687;DHT22;7431;49.440;11.084;2023-03-23T11:27:11;15.70;99.90
14687;DHT22;7431;49.440;11.084;2023-03-23T11:29:56;15.70;99.90
14687;DHT22;7431;49.440;11.084;2023-03-23T11:32:29;15.70;99.90
14687;DHT22;7431;49.440;11.084;2023-03-23T11:35:00;15.70;99.90
14687;DHT22;7431;49.440;11.084;2023-03-23T11:37:43;15.70;99.90
14687;DHT22;7431;49.440;11.084;2023-03-23T11:40:14;15.70;99.90
14687;DHT22;7431;49.440;11.084;2023-03-23T11:42:58;15.80;99.90
14687;DHT22;7431;49.440;11.084;2023-03-23T11:45:37;15.90;99.90
14687;DHT22;7431;49.440;11.084;2023-03-23T11:48:19;16.00;99.90
14687;DHT22;7431;49.440;11.084;2023-03-23T11:53:58;16.40;99.90
14687;DHT22;7431;49.440;11.084;2023-03-23T11:56:35;16.50;99.90
14687;DHT22;7431;49.440;11.084;2023-03-23T11:59:03;16.60;99.90
14687;DHT22;7431;49.440;11.084;2023-03-23T12:12:37;16.50;99.90
14687;DHT22;7431;49.440;11.084;2023-03-23T12:18:09;16.70;99.90
14687;DHT22;7431;49.440;11.084;2023-03-23T12:20:54;16.80;99.90
14687;DHT22;7431;49.440;11.084;2023-03-23T12:28:49;17.70;99.90
14687;DHT22;7431;49.440;11.084;2023-03-23T12:34:42;17.90;99.90
14687;DHT22;7431;49.440;11.084;2023-03-23T12:40:04;18.10;99.90
14687;DHT22;7431;49.440;11.084;2023-03-23T12:42:38;18.40;99.90
14687;DHT22;7431;49.440;11.084;2023-03-23T12:48:21;18.50;99.90
14687;DHT22;7431;49.440;11.084;2023-03-23T12:56:34;18.00;99.90
14687;DHT22;7431;49.440;11.084;2023-03-23T12:59:17;18.10;99.90
14687;DHT22;7431;49.440;11.084;2023-03-23T13:01:48;18.00;99.90
14687;DHT22;7431;49.440;11.084;2023-03-23T13:04:20;18.00;99.90
14687;DHT22;7431;49.440;11.084;2023-03-23T13:06:48;17.90;99.90
14687;DHT22;7431;49.440;11.084;2023-03-23T13:09:37;17.90;99.90
14687;DHT22;7431;49.440;11.084;2023-03-23T13:12:07;18.10;99.90
14687;DHT22;7431;49.440;11.084;2023-03-23T13:15:04;18.20;99.90
14687;DHT22;7431;49.440;11.084;2023-03-23T13:23:21;18.20;99.90
14687;DHT22;7431;49.440;11.084;2023-03-23T13:28:21;18.40;99.90
14687;DHT22;7431;49.440;11.084;2023-03-23T13:31:24;18.70;99.90
14687;DHT22;7431;49.440;11.084;2023-03-23T13:34:20;18.60;99.90
14687;DHT22;7431;49.440;11.084;2023-03-23T13:39:26;18.30;99.90
14687;DHT22;7431;49.440;11.084;2023-03-23T13:50:03;18.30;99.90
14687;DHT22;7431;49.440;11.084;2023-03-23T14:05:39;18.70;99.90
14687;DHT22;7431;49.440;11.084;2023-03-23T14:13:21;18.60;99.90
14687;DHT22;7431;49.440;11.084;2023-03-23T14:16:21;18.40;99.90
14687;DHT22;7431;49.440;11.084;2023-03-23T14:18:51;18.30;99.90
14687;DHT22;7431;49.440;11.084;2023-03-23T14:21:30;18.30;99.90
14687;DHT22;7431;49.440;11.084;2023-03-23T14:24:00;18.20;99.90
14687;DHT22;7431;49.440;11.084;2023-03-23T14:26:26;18.20;99.90
14687;DHT22;7431;49.440;11.084;2023-03-23T14:28:53;18.20;99.90
14687;DHT22;7431;49.440;11.084;2023-03-23T14:31:25;18.20;99.90
14687;DHT22;7431;49.440;11.084;2023-03-23T14:33:54;18.20;99.90
14687;DHT22;7431;49.440;11.084;2023-03-23T14:36:22;18.20;99.90
14687;DHT22;7431;49.440;11.084;2023-03-23T14:39:35;18.30;99.90
14687;DHT22;7431;49.440;11.084;2023-03-23T14:41:35;18.30;99.90
14687;DHT22;7431;49.440;11.084;2023-03-23T14:44:03;18.30;99.90
14687;DHT22;7431;49.440;11.084;2023-03-23T14:46:30;18.20;99.90
14687;DHT22;7431;49.440;11.084;2023-03-23T14:48:59;18.10;99.90
14687;DHT22;7431;49.440;11.084;2023-03-23T14:51:25;18.00;99.90
14687;DHT22;7431;49.440;11.084;2023-03-23T14:53:53;17.90;99.90
14687;DHT22;7431;49.440;11.084;2023-03-23T14:56:21;17.80;99.90
14687;DHT22;7431;49.440;11.084;2023-03-23T14:58:52;17.80;99.90
14687;DHT22;7431;49.440;11.084;2023-03-23T15:01:28;17.70;99.90
14687;DHT22;7431;49.440;11.084;2023-03-23T15:03:58;17.60;99.90
14687;DHT22;7431;49.440;11.084;2023-03-23T15:06:28;17.50;99.90
14687;DHT22;7431;49.440;11.084;2023-03-23T15:08:58;17.40;99.90
14687;DHT22;7431;49.440;11.084;2023-03-23T15:11:27;17.40;99.90
14687;DHT22;7431;49.440;11.084;2023-03-23T15:13:56;17.20;99.90
14687;DHT22;7431;49.440;11.084;2023-03-23T15:16:25;17.10;99.90
14687;DHT22;7431;49.440;11.084;2023-03-23T15:18:55;16.90;99.90
14687;DHT22;7431;49.440;11.084;2023-03-23T15:21:32;16.80;99.90
14687;DHT22;7431;49.440;11.084;2023-03-23T15:24:00;16.70;99.90
14687;DHT22;7431;49.440;11.084;2023-03-23T15:29:16;16.50;99.90
14687;DHT22;7431;49.440;11.084;2023-03-23T15:31:47;16.50;99.90
14687;DHT22;7431;49.440;11.084;2023-03-23T15:34:29;16.20;99.90
14687;DHT22;7431;49.440;11.084;2023-03-23T15:37:02;16.20;99.90
14687;DHT22;7431;49.440;11.084;2023-03-23T15:39:28;16.10;99.90
14687;DHT22;7431;49.440;11.084;2023-03-23T15:41:55;16.10;99.90
14687;DHT22;7431;49.440;11.084;2023-03-23T15:44:32;16.00;99.90
14687;DHT22;7431;49.440;11.084;2023-03-23T15:47:17;16.00;99.90
14687;DHT22;7431;49.440;11.084;2023-03-23T15:49:46;16.10;99.90
14687;DHT22;7431;49.440;11.084;2023-03-23T15:52:13;16.20;99.90
14687;DHT22;7431;49.440;11.084;2023-03-23T15:54:46;16.20;99.90
14687;DHT22;7431;49.440;11.084;2023-03-23T15:57:12;16.20;99.90
14687;DHT22;7431;49.440;11.084;2023-03-23T15:59:38;16.20;99.90
14687;DHT22;7431;49.440;11.084;2023-03-23T16:02:04;16.20;99.90
14687;DHT22;7431;49.440;11.084;2023-03-23T16:04:29;16.20;99.90
14687;DHT22;7431;49.440;11.084;2023-03-23T16:06:56;16.20;99.90
14687;DHT22;7431;49.440;11.084;2023-03-23T16:09:23;16.20;99.90
14687;DHT22;7431;49.440;11.084;2023-03-23T16:11:48;16.20;99.90
14687;DHT22;7431;49.440;11.084;2023-03-23T16:14:14;16.10;99.90
14687;DHT22;7431;49.440;11.084;2023-03-23T16:16:49;16.10;99.90
14687;DHT22;7431;49.440;11.084;2023-03-23T16:19:17;16.00;99.90
14687;DHT22;7431;49.440;11.084;2023-03-23T16:21:44;16.00;99.90
14687;DHT22;7431;49.440;11.084;2023-03-23T16:24:10;15.90;99.90
14687;DHT22;7431;49.440;11.084;2023-03-23T16:26:36;15.90;99.90
14687;DHT22;7431;49.440;11.084;2023-03-23T16:29:12;15.90;99.90
14687;DHT22;7431;49.440;11.084;2023-03-23T16:31:38;15.80;99.90
14687;DHT22;7431;49.440;11.084;2023-03-23T16:34:04;15.80;99.90
14687;DHT22;7431;49.440;11.084;2023-03-23T16:36:29;15.80;99.90
14687;DHT22;7431;49.440;11.084;2023-03-23T16:38:55;15.70;99.90
14687;DHT22;7431;49.440;11.084;2023-03-23T16:41:20;15.60;99.90
14687;DHT22;7431;49.440;11.084;2023-03-23T16:43:46;15.50;99.90
14687;DHT22;7431;49.440;11.084;2023-03-23T16:46:12;15.50;99.90
14687;DHT22;7431;49.440;11.084;2023-03-23T16:48:38;15.40;99.90
14687;DHT22;7431;49.440;11.084;2023-03-23T16:51:04;15.40;99.90
14687;DHT22;7431;49.440;11.084;2023-03-23T16:53:30;15.30;99.90
14687;DHT22;7431;49.440;11.084;2023-03-23T16:55:57;15.30;99.90
14687;DHT22;7431;49.440;11.084;2023-03-23T16:58:22;15.20;99.90
14687;DHT22;7431;49.440;11.084;2023-03-23T17:00:50;15.10;99.90
14687;DHT22;7431;49.440;11.084;2023-03-23T17:03:17;15.00;99.90
14687;DHT22;7431;49.440;11.084;2023-03-23T17:05:43;15.00;99.90
14687;DHT22;7431;49.440;11.084;2023-03-23T17:08:09;15.00;99.90
14687;DHT22;7431;49.440;11.084;2023-03-23T17:10:37;15.00;99.90
14687;DHT22;7431;49.440;11.084;2023-03-23T17:13:03;14.90;99.90
14687;DHT22;7431;49.440;11.084;2023-03-23T17:15:29;14.90;99.90
14687;DHT22;7431;49.440;11.084;2023-03-23T17:17:54;14.80;99.90
14687;DHT22;7431;49.440;11.084;2023-03-23T17:20:20;14.80;99.90
14687;DHT22;7431;49.440;11.084;2023-03-23T17:22:46;14.70;99.90
14687;DHT22;7431;49.440;11.084;2023-03-23T17:25:12;14.70;99.90
14687;DHT22;7431;49.440;11.084;2023-03-23T17:27:38;14.60;99.90
14687;DHT22;7431;49.440;11.084;2023-03-23T17:30:06;14.60;99.90
14687;DHT22;7431;49.440;11.084;2023-03-23T17:32:32;14.50;99.90
14687;DHT22;7431;49.440;11.084;2023-03-23T17:34:58;14.50;99.90
14687;DHT22;7431;49.440;11.084;2023-03-23T17:37:23;14.40;99.90
14687;DHT22;7431;49.440;11.084;2023-03-23T17:39:49;14.40;99.90
14687;DHT22;7431;49.440;11.084;2023-03-23T17:42:14;14.40;99.90
14687;DHT22;7431;49.440;11.084;2023-03-23T17:44:40;14.40;99.90
14687;DHT22;7431;49.440;11.084;2023-03-23T17:47:06;14.40;99.90
14687;DHT22;7431;49.440;11.084;2023-03-23T17:49:32;14.40;99.90